createdAt,value
2022-08-28T00:01:57.402Z,99.90
2022-08-28T00:04:24.214Z,99.90
2022-08-28T00:06:51.028Z,99.90
2022-08-28T00:09:17.966Z,99.90
2022-08-28T00:11:44.750Z,99.90
2022-08-28T00:14:11.530Z,99.90
2022-08-28T00:16:38.662Z,99.90
2022-08-28T00:19:05.834Z,99.90
2022-08-28T00:21:33.329Z,99.90
2022-08-28T00:24:00.477Z,99.90
2022-08-28T00:26:45.800Z,99.90
2022-08-28T00:29:12.761Z,99.90
2022-08-28T00:31:39.755Z,99.90
2022-08-28T00:34:07.152Z,99.90
2022-08-28T00:36:34.101Z,99.90
2022-08-28T00:39:00.927Z,99.90
2022-08-28T00:41:28.758Z,99.90
2022-08-28T00:44:10.894Z,99.90
2022-08-28T00:46:39.076Z,99.90
2022-08-28T00:49:06.340Z,99.90
2022-08-28T00:51:51.444Z,99.90
2022-08-28T00:54:19.476Z,99.90
2022-08-28T00:56:47.606Z,99.90
2022-08-28T00:59:15.681Z,99.90
2022-08-28T01:01:43.371Z,99.90
2022-08-28T01:04:12.453Z,99.90
2022-08-28T01:06:39.482Z,99.90
2022-08-28T01:09:06.563Z,99.90
2022-08-28T01:11:33.343Z,99.90
2022-08-28T01:14:01.926Z,99.90
2022-08-28T01:16:33.861Z,99.90
2022-08-28T01:19:01.424Z,99.90
2022-08-28T01:21:29.414Z,99.90
2022-08-28T01:24:03.330Z,99.90
2022-08-28T01:26:30.115Z,99.90
2022-08-28T01:28:58.513Z,99.90
2022-08-28T01:31:26.634Z,99.90
2022-08-28T01:33:53.512Z,99.90
2022-08-28T01:36:20.417Z,99.90
2022-08-28T01:38:49.087Z,99.90
2022-08-28T01:41:16.677Z,99.90
2022-08-28T01:43:43.486Z,99.90
2022-08-28T01:46:10.641Z,99.90
2022-08-28T01:48:38.023Z,99.90
2022-08-28T01:51:05.177Z,99.90
2022-08-28T01:53:32.482Z,99.90
2022-08-28T01:56:00.190Z,99.90
2022-08-28T01:58:27.153Z,99.90
2022-08-28T02:00:55.836Z,99.90
2022-08-28T02:03:22.944Z,99.90
2022-08-28T02:05:49.875Z,99.90
2022-08-28T02:08:16.702Z,99.90
2022-08-28T02:10:43.857Z,99.90
2022-08-28T02:13:11.697Z,99.90
2022-08-28T02:15:39.416Z,99.90
2022-08-28T02:18:06.282Z,99.90
2022-08-28T02:20:33.953Z,99.90
2022-08-28T02:23:00.816Z,99.90
2022-08-28T02:25:27.792Z,99.90
2022-08-28T02:27:54.898Z,99.90
2022-08-28T02:30:21.683Z,99.90
2022-08-28T02:32:48.479Z,99.90
2022-08-28T02:35:15.727Z,99.90
2022-08-28T02:37:44.304Z,99.90
2022-08-28T02:40:14.373Z,99.90
2022-08-28T02:42:42.034Z,99.90
2022-08-28T02:45:10.804Z,99.90
2022-08-28T02:47:38.275Z,99.90
2022-08-28T02:50:05.345Z,99.90
2022-08-28T02:52:32.098Z,99.90
2022-08-28T02:54:58.874Z,99.90
2022-08-28T02:57:26.556Z,99.90
2022-08-28T02:59:53.430Z,99.90
2022-08-28T03:02:20.196Z,99.90
2022-08-28T03:04:46.963Z,99.90
2022-08-28T03:07:13.822Z,99.90
2022-08-28T03:09:41.661Z,99.90
2022-08-28T03:12:08.533Z,99.90
2022-08-28T03:14:35.865Z,99.90
2022-08-28T03:17:02.786Z,99.90
2022-08-28T03:19:29.611Z,99.90
2022-08-28T03:21:56.363Z,99.90
2022-08-28T03:24:23.167Z,99.90
2022-08-28T03:26:49.917Z,99.90
2022-08-28T03:29:16.790Z,99.90
2022-08-28T03:31:43.570Z,99.90
2022-08-28T03:34:10.395Z,99.90
2022-08-28T03:36:37.167Z,99.90
2022-08-28T03:39:05.062Z,99.90
2022-08-28T03:41:31.851Z,99.90
2022-08-28T03:43:59.722Z,99.90
2022-08-28T03:46:26.856Z,99.90
2022-08-28T03:48:53.851Z,99.90
2022-08-28T03:51:25.474Z,99.90
2022-08-28T03:53:57.301Z,99.90
2022-08-28T03:56:24.661Z,99.90
2022-08-28T03:58:52.736Z,99.90
2022-08-28T04:01:19.728Z,99.90
2022-08-28T04:03:46.682Z,99.90
2022-08-28T04:06:13.541Z,99.90
2022-08-28T04:08:40.426Z,99.90
2022-08-28T04:11:07.226Z,99.90
2022-08-28T04:13:34.102Z,99.90
2022-08-28T04:16:10.682Z,99.90
2022-08-28T04:18:41.138Z,99.90
2022-08-28T04:21:10.024Z,99.90
2022-08-28T04:23:36.985Z,99.90
2022-08-28T04:26:10.270Z,99.90
2022-08-28T04:28:37.074Z,99.90
2022-08-28T04:31:03.928Z,99.90
2022-08-28T04:33:30.807Z,99.90
2022-08-28T04:35:57.556Z,99.90
2022-08-28T04:38:24.390Z,99.90
2022-08-28T04:40:51.174Z,99.90
2022-08-28T04:43:17.937Z,99.90
2022-08-28T04:45:44.948Z,99.90
2022-08-28T04:48:13.894Z,99.90
2022-08-28T04:50:41.475Z,99.90
2022-08-28T04:53:08.308Z,99.90
2022-08-28T04:55:54.369Z,99.90
2022-08-28T04:58:23.899Z,99.90
2022-08-28T05:00:51.401Z,99.90
2022-08-28T05:03:18.304Z,99.90
2022-08-28T05:05:45.588Z,95.00
2022-08-28T05:08:12.644Z,89.50
2022-08-28T05:10:40.370Z,80.70
2022-08-28T05:13:08.509Z,76.40
2022-08-28T05:15:39.043Z,72.10
2022-08-28T05:18:06.002Z,70.50
2022-08-28T05:20:39.045Z,67.20
2022-08-28T05:23:06.344Z,65.00
2022-08-28T05:25:36.680Z,64.40
2022-08-28T05:28:03.582Z,62.50
2022-08-28T05:30:30.474Z,62.00
2022-08-28T05:32:57.335Z,61.30
2022-08-28T05:35:24.977Z,59.00
2022-08-28T05:37:52.730Z,58.10
2022-08-28T05:40:21.548Z,58.20
2022-08-28T05:42:48.955Z,58.70
2022-08-28T05:45:15.801Z,56.90
2022-08-28T05:47:43.711Z,55.30
2022-08-28T05:50:10.661Z,54.10
2022-08-28T05:52:37.425Z,52.90
2022-08-28T05:55:05.412Z,51.90
2022-08-28T05:57:32.188Z,50.90
2022-08-28T05:59:59.001Z,50.40
2022-08-28T06:02:27.470Z,49.00
2022-08-28T06:04:54.657Z,48.60
2022-08-28T06:07:21.462Z,48.30
2022-08-28T06:09:48.484Z,48.50
2022-08-28T06:12:15.796Z,47.90
2022-08-28T06:14:42.563Z,47.10
2022-08-28T06:17:11.667Z,48.50
2022-08-28T06:19:41.579Z,48.00
2022-08-28T06:22:09.753Z,48.70
2022-08-28T06:24:36.581Z,49.20
2022-08-28T06:27:07.021Z,48.60
2022-08-28T06:29:33.862Z,49.80
2022-08-28T06:32:01.456Z,51.10
2022-08-28T06:34:28.733Z,52.50
2022-08-28T06:36:55.499Z,54.70
2022-08-28T06:39:22.402Z,56.40
2022-08-28T06:41:49.249Z,58.10
2022-08-28T06:44:19.794Z,59.90
2022-08-28T06:46:47.137Z,60.60
2022-08-28T06:49:14.467Z,62.60
2022-08-28T06:51:41.790Z,63.40
2022-08-28T06:54:09.067Z,64.10
2022-08-28T06:56:36.024Z,64.80
2022-08-28T06:59:02.857Z,64.60
2022-08-28T07:01:30.643Z,65.40
2022-08-28T07:03:59.545Z,66.00
2022-08-28T07:06:26.853Z,67.40
2022-08-28T07:08:53.707Z,67.70
2022-08-28T07:11:26.329Z,69.60
2022-08-28T07:13:53.574Z,70.00
2022-08-28T07:16:20.855Z,70.90
2022-08-28T07:18:47.679Z,71.60
2022-08-28T07:21:14.525Z,72.10
2022-08-28T07:23:42.239Z,73.00
2022-08-28T07:26:10.159Z,72.10
2022-08-28T07:28:37.709Z,70.70
2022-08-28T07:31:05.625Z,71.50
2022-08-28T07:33:32.741Z,71.10
2022-08-28T07:35:59.668Z,71.50
2022-08-28T07:38:26.822Z,72.40
2022-08-28T07:40:54.345Z,73.10
2022-08-28T07:43:39.781Z,73.30
2022-08-28T07:46:07.304Z,74.30
2022-08-28T07:48:35.488Z,74.80
2022-08-28T07:51:02.814Z,74.90
2022-08-28T07:53:33.216Z,75.00
2022-08-28T07:56:02.981Z,75.70
2022-08-28T07:58:29.950Z,74.40
2022-08-28T08:00:57.391Z,74.20
2022-08-28T08:03:25.713Z,73.50
2022-08-28T08:05:53.556Z,72.80
2022-08-28T08:08:20.377Z,72.70
2022-08-28T08:10:56.097Z,72.40
2022-08-28T08:13:23.306Z,72.40
2022-08-28T08:15:50.458Z,73.60
2022-08-28T08:18:17.310Z,73.40
2022-08-28T08:20:47.782Z,73.80
2022-08-28T08:23:15.512Z,73.70
2022-08-28T08:25:42.290Z,72.30
2022-08-28T08:28:09.468Z,72.40
2022-08-28T08:30:36.477Z,72.50
2022-08-28T08:33:03.276Z,73.80
2022-08-28T08:35:30.059Z,73.80
2022-08-28T08:38:00.656Z,73.50
2022-08-28T08:40:29.551Z,73.40
2022-08-28T08:42:57.221Z,73.10
2022-08-28T08:45:26.650Z,74.20
2022-08-28T08:47:54.045Z,74.30
2022-08-28T08:50:30.685Z,73.00
2022-08-28T08:53:09.334Z,73.30
2022-08-28T08:55:36.893Z,74.80
2022-08-28T08:58:05.291Z,74.10
2022-08-28T09:00:33.603Z,74.40
2022-08-28T09:03:12.221Z,73.30
2022-08-28T09:05:41.589Z,73.40
2022-08-28T09:08:08.772Z,72.80
2022-08-28T09:10:36.477Z,72.50
2022-08-28T09:13:05.235Z,72.60
2022-08-28T09:15:32.919Z,72.30
2022-08-28T09:18:06.727Z,70.00
2022-08-28T09:20:33.688Z,70.00
2022-08-28T09:23:00.524Z,69.90
2022-08-28T09:25:47.799Z,69.60
2022-08-28T09:28:25.084Z,67.30
2022-08-28T09:31:12.148Z,66.90
2022-08-28T09:33:40.004Z,64.80
2022-08-28T09:36:26.138Z,64.00
2022-08-28T09:39:04.068Z,63.80
2022-08-28T09:41:49.244Z,61.10
2022-08-28T09:44:16.118Z,57.50
2022-08-28T09:46:46.272Z,55.00
2022-08-28T09:49:13.573Z,54.10
2022-08-28T09:51:40.416Z,55.20
2022-08-28T09:54:36.263Z,55.40
2022-08-28T09:57:03.618Z,56.10
2022-08-28T09:59:30.473Z,54.90
2022-08-28T10:01:57.339Z,54.40
2022-08-28T10:04:36.298Z,51.70
2022-08-28T10:07:11.831Z,52.10
2022-08-28T10:09:38.968Z,52.20
2022-08-28T10:12:30.047Z,52.60
2022-08-28T10:15:17.841Z,53.50
2022-08-28T10:17:44.764Z,53.70
2022-08-28T10:20:17.580Z,51.10
2022-08-28T10:22:49.498Z,50.60
2022-08-28T10:25:22.439Z,51.60
2022-08-28T10:28:05.901Z,53.50
2022-08-28T10:30:34.035Z,53.30
2022-08-28T10:33:19.473Z,53.80
2022-08-28T10:35:58.279Z,54.60
2022-08-28T10:38:33.960Z,54.60
2022-08-28T10:41:10.704Z,55.80
2022-08-28T10:43:43.590Z,55.40
2022-08-28T10:46:14.239Z,56.70
2022-08-28T10:48:46.541Z,56.70
2022-08-28T10:51:35.362Z,56.40
2022-08-28T10:54:08.297Z,57.60
2022-08-28T10:56:36.919Z,56.90
2022-08-28T10:59:03.687Z,55.00
2022-08-28T11:01:30.611Z,56.20
2022-08-28T11:03:58.172Z,55.60
2022-08-28T11:06:27.383Z,56.10
2022-08-28T11:08:55.333Z,56.30
2022-08-28T11:12:01.828Z,55.30
2022-08-28T11:14:29.877Z,56.10
2022-08-28T11:17:03.849Z,56.60
2022-08-28T11:19:52.076Z,56.10
2022-08-28T11:22:37.889Z,56.10
2022-08-28T11:25:15.633Z,55.60
2022-08-28T11:28:02.424Z,55.90
2022-08-28T11:30:33.382Z,56.50
2022-08-28T11:33:00.996Z,55.90
2022-08-28T11:35:30.514Z,56.00
2022-08-28T11:37:57.516Z,56.40
2022-08-28T11:40:30.145Z,57.70
2022-08-28T11:43:16.165Z,56.90
2022-08-28T11:45:45.802Z,57.10
2022-08-28T11:48:22.915Z,57.80
2022-08-28T11:51:00.468Z,58.60
2022-08-28T11:53:33.941Z,56.50
2022-08-28T11:56:04.490Z,56.10
2022-08-28T11:58:34.360Z,56.50
2022-08-28T12:01:05.146Z,56.70
2022-08-28T12:03:34.035Z,57.60
2022-08-28T12:06:00.898Z,57.40
2022-08-28T12:08:48.992Z,55.30
2022-08-28T12:11:34.273Z,55.90
2022-08-28T12:14:01.125Z,55.30
2022-08-28T12:16:27.937Z,56.30
2022-08-28T12:18:54.763Z,56.30
2022-08-28T12:21:22.276Z,55.40
2022-08-28T12:23:58.093Z,54.70
2022-08-28T12:26:30.226Z,55.00
2022-08-28T12:28:57.072Z,55.50
2022-08-28T12:32:11.632Z,54.50
2022-08-28T12:34:49.845Z,54.70
2022-08-28T12:37:51.165Z,54.20
2022-08-28T12:40:23.871Z,53.70
2022-08-28T12:42:54.900Z,54.30
2022-08-28T12:45:26.367Z,53.30
2022-08-28T12:47:53.860Z,53.40
2022-08-28T12:50:34.683Z,52.30
2022-08-28T12:53:03.368Z,51.70
2022-08-28T12:55:30.481Z,51.30
2022-08-28T12:57:57.405Z,51.70
2022-08-28T13:00:25.262Z,52.50
2022-08-28T13:02:53.505Z,52.80
2022-08-28T13:05:27.118Z,51.80
2022-08-28T13:07:56.797Z,50.50
2022-08-28T13:10:30.654Z,52.20
2022-08-28T13:13:04.692Z,52.50
2022-08-28T13:15:51.132Z,52.00
2022-08-28T13:18:36.502Z,51.20
2022-08-28T13:21:13.408Z,51.60
2022-08-28T13:23:40.218Z,51.30
2022-08-28T13:26:07.163Z,51.50
2022-08-28T13:28:40.578Z,52.20
2022-08-28T13:31:09.845Z,51.80
2022-08-28T13:33:39.054Z,51.80
2022-08-28T13:36:20.748Z,50.80
2022-08-28T13:38:47.524Z,50.50
2022-08-28T13:41:14.430Z,51.00
2022-08-28T13:43:45.523Z,49.80
2022-08-28T13:46:12.415Z,50.40
2022-08-28T13:48:39.197Z,50.40
2022-08-28T13:51:07.574Z,50.50
2022-08-28T13:53:37.362Z,50.60
2022-08-28T13:56:04.242Z,51.00
2022-08-28T13:58:31.118Z,50.50
2022-08-28T14:00:57.980Z,49.90
2022-08-28T14:03:37.780Z,50.70
2022-08-28T14:06:14.366Z,50.80
2022-08-28T14:08:41.422Z,49.10
2022-08-28T14:11:08.385Z,49.00
2022-08-28T14:13:39.911Z,49.40
2022-08-28T14:16:07.290Z,49.40
2022-08-28T14:18:34.724Z,48.10
2022-08-28T14:21:03.903Z,48.00
2022-08-28T14:23:30.655Z,49.20
2022-08-28T14:25:57.703Z,48.60
2022-08-28T14:28:24.495Z,47.60
2022-08-28T14:30:51.359Z,47.20
2022-08-28T14:33:20.840Z,48.10
2022-08-28T14:35:48.829Z,47.40
2022-08-28T14:38:15.674Z,47.30
2022-08-28T14:40:42.912Z,47.00
2022-08-28T14:43:10.116Z,47.70
2022-08-28T14:45:43.885Z,47.10
2022-08-28T14:48:10.700Z,47.70
2022-08-28T14:50:44.084Z,47.90
2022-08-28T14:53:11.064Z,47.70
2022-08-28T14:55:45.782Z,47.20
2022-08-28T14:58:12.849Z,46.10
2022-08-28T15:00:43.605Z,46.60
2022-08-28T15:03:10.615Z,46.60
2022-08-28T15:05:37.520Z,47.00
2022-08-28T15:08:07.913Z,46.40
2022-08-28T15:10:34.818Z,46.70
2022-08-28T15:13:01.606Z,46.80
2022-08-28T15:15:28.425Z,45.80
2022-08-28T15:17:55.182Z,46.00
2022-08-28T15:20:21.984Z,45.90
2022-08-28T15:22:48.767Z,46.00
2022-08-28T15:25:15.521Z,45.20
2022-08-28T15:27:42.301Z,45.20
2022-08-28T15:30:09.404Z,45.30
2022-08-28T15:32:36.171Z,45.70
2022-08-28T15:35:03.004Z,46.30
2022-08-28T15:37:31.678Z,47.00
2022-08-28T15:40:17.217Z,47.80
2022-08-28T15:42:44.108Z,47.80
2022-08-28T15:45:12.200Z,47.00
2022-08-28T15:47:38.992Z,47.70
2022-08-28T15:50:06.045Z,47.30
2022-08-28T15:52:33.300Z,47.70
2022-08-28T15:55:00.374Z,48.40
2022-08-28T15:57:27.166Z,48.80
2022-08-28T15:59:54.453Z,48.70
2022-08-28T16:02:21.994Z,48.70
2022-08-28T16:04:48.929Z,50.40
2022-08-28T16:07:16.014Z,52.90
2022-08-28T16:09:42.861Z,54.20
2022-08-28T16:12:09.660Z,54.80
2022-08-28T16:14:36.448Z,55.50
2022-08-28T16:17:05.544Z,55.90
2022-08-28T16:19:37.347Z,56.70
2022-08-28T16:22:04.237Z,56.80
2022-08-28T16:24:31.010Z,57.30
2022-08-28T16:26:57.750Z,57.80
2022-08-28T16:29:24.620Z,58.20
2022-08-28T16:31:51.773Z,58.90
2022-08-28T16:34:19.615Z,58.70
2022-08-28T16:36:50.360Z,58.50
2022-08-28T16:39:17.525Z,58.30
2022-08-28T16:41:49.826Z,58.30
2022-08-28T16:44:23.063Z,58.60
2022-08-28T16:46:50.354Z,59.10
2022-08-28T16:49:17.584Z,58.80
2022-08-28T16:51:44.334Z,59.10
2022-08-28T16:54:11.103Z,59.00
2022-08-28T16:56:37.873Z,59.30
2022-08-28T16:59:10.116Z,59.50
2022-08-28T17:01:37.627Z,60.20
2022-08-28T17:04:07.585Z,59.80
2022-08-28T17:06:35.555Z,59.90
2022-08-28T17:09:02.338Z,61.30
2022-08-28T17:11:29.290Z,61.30
2022-08-28T17:13:56.505Z,62.90
2022-08-28T17:16:23.769Z,62.90
2022-08-28T17:18:52.556Z,64.90
2022-08-28T17:21:40.827Z,65.60
2022-08-28T17:24:08.167Z,67.60
2022-08-28T17:26:35.023Z,68.90
2022-08-28T17:29:02.335Z,70.40
2022-08-28T17:31:29.185Z,72.10
2022-08-28T17:33:56.061Z,73.80
2022-08-28T17:36:34.070Z,75.80
2022-08-28T17:39:04.769Z,76.90
2022-08-28T17:41:33.894Z,78.60
2022-08-28T17:44:00.993Z,81.70
2022-08-28T17:46:27.777Z,84.30
2022-08-28T17:48:56.213Z,90.10
2022-08-28T17:51:40.444Z,90.50
2022-08-28T17:54:10.388Z,91.50
2022-08-28T17:56:37.140Z,90.30
2022-08-28T17:59:04.854Z,90.00
2022-08-28T18:01:31.728Z,90.80
2022-08-28T18:03:58.600Z,92.20
2022-08-28T18:06:25.471Z,92.00
2022-08-28T18:08:52.289Z,91.40
2022-08-28T18:11:19.237Z,90.90
2022-08-28T18:13:46.571Z,91.60
2022-08-28T18:16:14.565Z,92.90
2022-08-28T18:18:41.709Z,94.30
2022-08-28T18:21:11.761Z,94.60
2022-08-28T18:23:40.043Z,96.30
2022-08-28T18:26:07.463Z,96.50
2022-08-28T18:28:34.483Z,96.20
2022-08-28T18:31:01.577Z,96.30
2022-08-28T18:33:29.854Z,95.60
2022-08-28T18:35:57.051Z,93.00
2022-08-28T18:38:25.719Z,93.00
2022-08-28T18:40:53.720Z,92.80
2022-08-28T18:43:22.577Z,91.90
2022-08-28T18:45:49.701Z,93.00
2022-08-28T18:48:16.811Z,92.70
2022-08-28T18:50:46.497Z,93.70
2022-08-28T18:53:14.329Z,91.70
2022-08-28T18:55:41.383Z,91.90
2022-08-28T18:58:08.180Z,91.80
2022-08-28T19:00:38.257Z,89.50
2022-08-28T19:03:05.374Z,85.50
2022-08-28T19:05:33.520Z,85.30
2022-08-28T19:08:00.513Z,87.00
2022-08-28T19:10:34.152Z,86.50
2022-08-28T19:13:01.639Z,85.70
2022-08-28T19:15:28.596Z,85.40
2022-08-28T19:17:55.446Z,86.70
2022-08-28T19:20:22.343Z,87.70
2022-08-28T19:22:49.209Z,86.00
2022-08-28T19:25:27.604Z,85.60
2022-08-28T19:27:56.344Z,84.80
2022-08-28T19:30:26.036Z,84.50
2022-08-28T19:32:53.375Z,84.50
2022-08-28T19:35:20.372Z,84.00
2022-08-28T19:37:50.916Z,82.80
2022-08-28T19:40:17.769Z,83.50
2022-08-28T19:42:44.724Z,83.30
2022-08-28T19:45:12.516Z,83.30
2022-08-28T19:47:40.131Z,82.80
2022-08-28T19:50:08.596Z,83.70
2022-08-28T19:52:36.526Z,85.10
2022-08-28T19:55:06.103Z,85.60
2022-08-28T19:57:33.317Z,85.40
2022-08-28T20:00:00.332Z,86.50
2022-08-28T20:02:28.622Z,85.90
2022-08-28T20:04:55.542Z,85.30
2022-08-28T20:07:22.541Z,84.80
2022-08-28T20:09:49.319Z,85.70
2022-08-28T20:12:16.165Z,86.60
2022-08-28T20:14:44.688Z,87.20
2022-08-28T20:17:11.506Z,87.10
2022-08-28T20:19:38.630Z,88.40
2022-08-28T20:22:05.444Z,89.00
2022-08-28T20:24:32.262Z,90.20
2022-08-28T20:26:59.184Z,89.10
2022-08-28T20:29:25.960Z,88.50
2022-08-28T20:31:53.003Z,87.40
2022-08-28T20:34:19.882Z,87.70
2022-08-28T20:36:46.913Z,87.90
2022-08-28T20:39:14.799Z,87.00
2022-08-28T20:41:41.708Z,87.10
2022-08-28T20:44:09.292Z,88.20
2022-08-28T20:46:40.746Z,88.80
2022-08-28T20:49:08.807Z,89.30
2022-08-28T20:51:53.917Z,89.90
2022-08-28T20:54:21.582Z,90.00
2022-08-28T20:56:48.724Z,89.40
2022-08-28T20:59:15.600Z,90.10
2022-08-28T21:01:42.385Z,90.90
2022-08-28T21:04:09.249Z,91.20
2022-08-28T21:06:36.049Z,91.70
2022-08-28T21:09:02.837Z,91.90
2022-08-28T21:11:29.671Z,92.30
2022-08-28T21:13:56.504Z,92.40
2022-08-28T21:16:23.354Z,93.20
2022-08-28T21:19:14.713Z,93.70
2022-08-28T21:21:37.091Z,94.50
2022-08-28T21:24:04.639Z,94.90
2022-08-28T21:26:31.428Z,95.10
2022-08-28T21:28:58.313Z,95.60
2022-08-28T21:31:25.440Z,95.70
2022-08-28T21:33:52.267Z,95.80
2022-08-28T21:36:19.080Z,95.50
2022-08-28T21:38:45.861Z,95.00
2022-08-28T21:41:13.504Z,95.10
2022-08-28T21:43:40.806Z,94.30
2022-08-28T21:46:07.796Z,93.70
2022-08-28T21:48:37.576Z,93.70
2022-08-28T21:51:07.911Z,93.90
2022-08-28T21:53:34.692Z,94.30
2022-08-28T21:56:01.486Z,94.90
2022-08-28T21:58:28.345Z,95.20
2022-08-28T22:00:56.841Z,95.70
2022-08-28T22:03:23.916Z,95.90
2022-08-28T22:05:50.845Z,95.90
2022-08-28T22:08:17.996Z,95.70
2022-08-28T22:10:44.983Z,95.30
2022-08-28T22:13:12.003Z,95.20
2022-08-28T22:15:40.007Z,94.90
2022-08-28T22:18:10.090Z,94.60
2022-08-28T22:20:57.231Z,94.40
2022-08-28T22:23:24.279Z,95.20
2022-08-28T22:25:51.026Z,95.90
2022-08-28T22:28:17.786Z,97.00
2022-08-28T22:30:44.627Z,98.40
2022-08-28T22:33:11.553Z,99.60
2022-08-28T22:35:38.309Z,99.90
2022-08-28T22:38:05.081Z,99.90
2022-08-28T22:40:32.654Z,99.90
2022-08-28T22:42:59.552Z,99.90
2022-08-28T22:45:26.365Z,99.90
2022-08-28T22:47:53.997Z,99.90
2022-08-28T22:50:20.782Z,99.90
2022-08-28T22:52:48.123Z,99.90
2022-08-28T22:55:15.326Z,99.90
2022-08-28T22:57:42.078Z,99.90
2022-08-28T23:00:10.950Z,99.20
2022-08-28T23:02:38.154Z,99.30
2022-08-28T23:05:05.635Z,99.60
2022-08-28T23:07:32.508Z,99.60
2022-08-28T23:09:59.294Z,99.60
2022-08-28T23:12:26.092Z,99.60
2022-08-28T23:14:52.898Z,99.90
2022-08-28T23:17:19.664Z,99.90
2022-08-28T23:19:46.831Z,99.90
2022-08-28T23:22:13.761Z,99.90
2022-08-28T23:24:40.541Z,99.90
2022-08-28T23:27:32.472Z,99.90
2022-08-28T23:29:54.814Z,99.90
2022-08-28T23:32:22.121Z,99.90
2022-08-28T23:34:48.951Z,99.90
2022-08-28T23:37:15.714Z,99.90
2022-08-28T23:39:42.695Z,99.90
2022-08-28T23:42:10.376Z,99.90
2022-08-28T23:44:37.140Z,99.90
2022-08-28T23:47:04.291Z,99.90
2022-08-28T23:49:32.147Z,99.90
2022-08-28T23:51:58.905Z,99.90
2022-08-28T23:54:26.526Z,99.90
2022-08-28T23:56:54.004Z,99.90
2022-08-28T23:59:22.755Z,99.90
